Wooramel, Australia
Current Conditions -  °F | °C
As of 7:00 AM on Sunday 21 Dec 2014 (Local Time) from YCAR Reporting Station
Few Clouds Few Clouds  
Wind Chill: 70°   Ceiling: Unl
Heat Index: 70°   Visibility: 6mi
Dew Point: 59°   Wind: 17mph
Humidity: 68%   Direction: 150°SSE
Pressure: 29.85"   Gusts: NA
Location:  25.75°S, 114.26°E
Report Text: YCAR 202300Z 15015KT 9999 FEW016 21/15 Q1011
Loading
Personal Weather Stations






























Interactive Weather Map New forecast layout! Learn more

10-Day Weather Forecast

Advertisements
Track Severe Weather on mobile